Time;durP1;ratioP1;P1;durP2;ratioP2;P2;SDS_P1;SDS_P2;PMS_P1;PMS_P2;Temp;Humidity;BMP_temperature;BMP_pressure;BME280_temperature;BME280_humidity;BME280_pressure;Samples;Min_cycle;Max_cycle;Signal;HPM_P1;HPM_P2
2023/10/30 00:00:45;;;;;;;6.82;1.10;;;;;;;;;;4985222;28;20065;-68
2023/10/30 00:03:11;;;;;;;11.02;2.17;;;;;;;;;;4986586;28;20073;-68
2023/10/30 00:05:37;;;;;;;4.18;1.10;;;;;;;;;;4986426;28;20493;-69
2023/10/30 00:08:03;;;;;;;5.57;1.23;;;;;;;;;;4987315;28;20673;-69
2023/10/30 00:10:29;;;;;;;7.32;1.83;;;;;;;;;;4986526;28;20144;-68
2023/10/30 00:12:56;;;;;;;10.15;1.30;;;;;;;;;;4984553;28;20038;-69
2023/10/30 00:15:23;;;;;;;6.22;1.63;;;;;;;;;;4983358;28;20709;-68
2023/10/30 00:17:49;;;;;;;6.53;1.35;;;;;;;;;;4984715;28;20045;-68
2023/10/30 00:20:15;;;;;;;5.40;1.02;;;;;;;;;;4988156;28;20041;-68
2023/10/30 00:22:41;;;;;;;5.57;1.13;;;;;;;;;;4984543;28;21099;-68
2023/10/30 00:25:07;;;;;;;12.50;2.78;;;;;;;;;;4987214;28;20038;-68
2023/10/30 00:27:33;;;;;;;6.22;1.58;;;;;;;;;;4985989;28;20026;-68
2023/10/30 00:29:59;;;;;;;5.60;1.38;;;;;;;;;;4986448;28;20040;-68
2023/10/30 00:32:25;;;;;;;13.40;1.25;;;;;;;;;;4985282;28;20289;-68
2023/10/30 00:34:51;;;;;;;8.85;1.83;;;;;;;;;;4987349;28;20032;-69
2023/10/30 00:37:17;;;;;;;7.20;1.27;;;;;;;;;;4987286;28;20895;-68
2023/10/30 00:39:43;;;;;;;4.95;1.10;;;;;;;;;;4985189;28;20026;-69
2023/10/30 00:42:10;;;;;;;5.80;0.80;;;;;;;;;;4986286;28;20054;-68
2023/10/30 00:44:39;;;;;;;5.72;1.10;;;;;;;;;;4984269;28;20046;-68
2023/10/30 00:47:06;;;;;;;4.18;0.80;;;;;;;;;;4985735;28;20060;-69
2023/10/30 00:49:32;;;;;;;5.28;1.05;;;;;;;;;;4984792;28;20053;-69
2023/10/30 00:51:58;;;;;;;4.65;1.00;;;;;;;;;;4995525;28;20034;-69
2023/10/30 00:54:24;;;;;;;5.43;0.90;;;;;;;;;;4997384;28;20669;-69
2023/10/30 00:56:50;;;;;;;4.50;1.30;;;;;;;;;;4985998;28;20519;-68
2023/10/30 00:59:16;;;;;;;5.75;1.15;;;;;;;;;;4984628;28;20038;-69
2023/10/30 01:01:45;;;;;;;7.85;1.05;;;;;;;;;;4983200;28;20057;-68
2023/10/30 01:04:11;;;;;;;6.07;1.13;;;;;;;;;;4985741;28;20076;-69
2023/10/30 01:06:37;;;;;;;4.03;1.08;;;;;;;;;;4986570;28;20033;-69
2023/10/30 01:09:03;;;;;;;4.25;1.42;;;;;;;;;;4986576;28;20040;-68
2023/10/30 01:11:29;;;;;;;3.92;0.65;;;;;;;;;;4993952;28;20040;-69
2023/10/30 01:13:55;;;;;;;9.13;1.10;;;;;;;;;;4986614;28;20038;-69
2023/10/30 01:16:22;;;;;;;3.15;0.82;;;;;;;;;;4984874;28;20051;-69
2023/10/30 01:18:48;;;;;;;3.00;0.80;;;;;;;;;;4985400;28;20556;-69
2023/10/30 01:21:15;;;;;;;5.80;0.80;;;;;;;;;;4984455;28;20045;-68
2023/10/30 01:23:41;;;;;;;4.78;0.70;;;;;;;;;;4986206;28;20041;-69
2023/10/30 01:26:07;;;;;;;4.72;0.93;;;;;;;;;;4984813;28;20048;-68
2023/10/30 01:28:33;;;;;;;5.88;0.75;;;;;;;;;;4983375;28;20030;-68
2023/10/30 01:30:59;;;;;;;2.35;0.73;;;;;;;;;;4985933;28;20029;-69
2023/10/30 01:33:25;;;;;;;5.75;0.65;;;;;;;;;;4984992;28;20107;-68
2023/10/30 01:35:52;;;;;;;4.68;0.75;;;;;;;;;;4984837;28;20419;-69
2023/10/30 01:38:18;;;;;;;5.07;0.90;;;;;;;;;;4985211;28;20192;-69
2023/10/30 01:40:50;;;;;;;5.13;1.20;;;;;;;;;;4983869;28;20073;-69
2023/10/30 01:43:17;;;;;;;5.37;1.00;;;;;;;;;;4983874;28;20068;-68
2023/10/30 01:45:43;;;;;;;4.05;0.95;;;;;;;;;;4982620;28;20034;-68
2023/10/30 01:48:10;;;;;;;4.30;0.90;;;;;;;;;;4985551;28;20037;-68
2023/10/30 01:50:37;;;;;;;2.42;0.63;;;;;;;;;;4984206;28;20030;-68
2023/10/30 01:53:03;;;;;;;3.55;0.75;;;;;;;;;;4984111;28;20039;-68
2023/10/30 01:55:30;;;;;;;3.50;0.68;;;;;;;;;;4983513;28;20073;-68
2023/10/30 01:57:56;;;;;;;3.78;0.80;;;;;;;;;;4984583;28;20042;-68
2023/10/30 02:00:22;;;;;;;6.95;1.50;;;;;;;;;;4984960;28;20055;-68
2023/10/30 02:02:49;;;;;;;4.63;1.00;;;;;;;;;;4983513;28;20041;-68
2023/10/30 02:05:18;;;;;;;5.60;1.00;;;;;;;;;;4985029;28;20037;-68
2023/10/30 02:07:44;;;;;;;8.23;1.45;;;;;;;;;;4982645;28;20029;-68
2023/10/30 02:10:11;;;;;;;12.63;1.50;;;;;;;;;;4984418;28;20578;-68
2023/10/30 02:12:37;;;;;;;3.53;1.17;;;;;;;;;;4984094;28;20113;-68
2023/10/30 02:15:03;;;;;;;4.78;1.10;;;;;;;;;;4982241;28;20038;-68
2023/10/30 02:17:29;;;;;;;5.80;1.08;;;;;;;;;;4983911;28;20065;-69
2023/10/30 02:19:56;;;;;;;4.70;1.25;;;;;;;;;;4984681;28;20092;-69
2023/10/30 02:22:22;;;;;;;6.60;1.40;;;;;;;;;;4985047;28;20125;-68
2023/10/30 02:24:48;;;;;;;4.90;1.08;;;;;;;;;;4984487;28;20034;-69
2023/10/30 02:27:14;;;;;;;9.00;2.00;;;;;;;;;;4985055;28;20030;-68
2023/10/30 02:29:40;;;;;;;7.00;1.50;;;;;;;;;;4984116;28;20076;-68
2023/10/30 02:32:06;;;;;;;9.18;1.33;;;;;;;;;;4984748;28;20053;-68
2023/10/30 02:34:32;;;;;;;6.15;1.48;;;;;;;;;;4984187;28;20072;-68
2023/10/30 02:37:00;;;;;;;6.70;1.42;;;;;;;;;;4984823;28;20026;-68
2023/10/30 02:39:32;;;;;;;8.52;1.42;;;;;;;;;;4984156;28;20033;-68
2023/10/30 02:41:58;;;;;;;7.65;1.70;;;;;;;;;;4987553;28;20037;-68
2023/10/30 02:44:24;;;;;;;4.65;1.30;;;;;;;;;;4988884;28;20041;-68
2023/10/30 02:46:51;;;;;;;6.45;1.50;;;;;;;;;;4985890;28;20033;-68
2023/10/30 02:49:17;;;;;;;7.03;2.05;;;;;;;;;;4989275;28;20101;-68
2023/10/30 02:51:43;;;;;;;5.68;1.40;;;;;;;;;;4987844;28;20140;-68
2023/10/30 02:54:09;;;;;;;7.88;1.58;;;;;;;;;;4989822;28;20038;-68
2023/10/30 02:56:35;;;;;;;6.28;1.30;;;;;;;;;;4987511;28;20034;-68
2023/10/30 02:59:01;;;;;;;7.43;1.60;;;;;;;;;;4986722;28;20029;-68
2023/10/30 03:01:28;;;;;;;8.40;1.65;;;;;;;;;;4987565;28;20042;-68
2023/10/30 03:03:55;;;;;;;8.88;2.38;;;;;;;;;;4986786;28;20019;-68
2023/10/30 03:06:21;;;;;;;8.13;1.83;;;;;;;;;;4997324;28;20389;-68
2023/10/30 03:08:47;;;;;;;4.30;1.30;;;;;;;;;;4986880;28;20030;-67
2023/10/30 03:11:13;;;;;;;7.18;1.58;;;;;;;;;;4988330;28;20026;-68
2023/10/30 03:13:39;;;;;;;8.30;2.20;;;;;;;;;;4988064;28;20034;-68
2023/10/30 03:16:05;;;;;;;9.95;1.95;;;;;;;;;;4986158;28;20485;-68
2023/10/30 03:18:31;;;;;;;8.23;1.95;;;;;;;;;;4988177;28;20034;-68
2023/10/30 03:20:57;;;;;;;8.90;1.60;;;;;;;;;;4987043;28;20034;-68
2023/10/30 03:23:24;;;;;;;8.23;1.88;;;;;;;;;;4987791;28;21143;-68
2023/10/30 03:25:50;;;;;;;6.38;1.67;;;;;;;;;;4985852;28;20045;-68
2023/10/30 03:28:16;;;;;;;12.05;2.40;;;;;;;;;;4988102;28;20037;-67
2023/10/30 03:30:42;;;;;;;10.85;1.75;;;;;;;;;;4987278;28;20050;-68
2023/10/30 03:33:08;;;;;;;11.90;1.92;;;;;;;;;;4988178;28;20135;-68
2023/10/30 03:35:38;;;;;;;11.82;1.88;;;;;;;;;;4988155;28;20037;-68
2023/10/30 03:38:04;;;;;;;12.13;2.15;;;;;;;;;;4986475;28;20042;-68
2023/10/30 03:40:31;;;;;;;9.45;1.80;;;;;;;;;;4987531;28;20436;-68
2023/10/30 03:42:57;;;;;;;6.90;1.77;;;;;;;;;;4985887;28;21678;-68
2023/10/30 03:45:23;;;;;;;11.27;2.20;;;;;;;;;;4987902;28;20670;-68
2023/10/30 03:47:49;;;;;;;5.82;1.60;;;;;;;;;;4987555;28;20024;-68
2023/10/30 03:50:16;;;;;;;9.80;2.03;;;;;;;;;;4996594;28;20048;-68
2023/10/30 03:52:43;;;;;;;7.68;2.00;;;;;;;;;;4986982;28;20030;-68
2023/10/30 03:55:09;;;;;;;11.27;2.20;;;;;;;;;;4985162;28;20038;-68
2023/10/30 03:57:35;;;;;;;9.32;1.83;;;;;;;;;;4987393;28;20041;-68
2023/10/30 04:00:01;;;;;;;8.18;1.80;;;;;;;;;;4985523;28;20589;-68
2023/10/30 04:02:29;;;;;;;9.82;2.05;;;;;;;;;;4987957;28;20029;-68
2023/10/30 04:04:55;;;;;;;12.70;1.67;;;;;;;;;;4987415;28;20748;-68
2023/10/30 04:07:21;;;;;;;7.28;1.52;;;;;;;;;;4986332;28;20030;-68
2023/10/30 04:09:47;;;;;;;10.82;1.70;;;;;;;;;;4986511;28;20615;-68
2023/10/30 04:12:13;;;;;;;10.60;2.30;;;;;;;;;;4985184;28;20528;-68
2023/10/30 04:14:39;;;;;;;11.57;1.73;;;;;;;;;;4987231;28;20034;-68
2023/10/30 04:17:05;;;;;;;8.10;1.67;;;;;;;;;;4989292;28;20038;-68
2023/10/30 04:19:31;;;;;;;11.25;1.90;;;;;;;;;;4986876;28;20038;-68
2023/10/30 04:21:57;;;;;;;13.55;2.40;;;;;;;;;;4986711;28;20034;-68
2023/10/30 04:24:23;;;;;;;10.52;1.75;;;;;;;;;;4986614;28;20083;-68
2023/10/30 04:26:49;;;;;;;11.50;2.38;;;;;;;;;;4986775;28;21753;-68
2023/10/30 04:29:15;;;;;;;12.20;2.22;;;;;;;;;;4985617;28;20567;-68
2023/10/30 04:31:41;;;;;;;10.57;1.55;;;;;;;;;;4986455;28;20039;-68
2023/10/30 04:34:07;;;;;;;8.85;1.50;;;;;;;;;;4986330;28;20026;-68
2023/10/30 04:36:33;;;;;;;8.63;1.80;;;;;;;;;;4985817;28;20069;-68
2023/10/30 04:39:00;;;;;;;13.82;2.55;;;;;;;;;;4986304;28;20030;-68
2023/10/30 04:41:26;;;;;;;10.80;2.22;;;;;;;;;;4985343;28;20045;-68
2023/10/30 04:43:52;;;;;;;7.07;1.60;;;;;;;;;;4984321;28;20212;-68
2023/10/30 04:46:18;;;;;;;10.35;2.25;;;;;;;;;;4983994;28;20061;-68
2023/10/30 04:48:44;;;;;;;7.90;1.70;;;;;;;;;;4985617;28;20069;-68
2023/10/30 04:51:10;;;;;;;12.68;2.15;;;;;;;;;;4985717;28;20050;-68
2023/10/30 04:53:36;;;;;;;12.60;2.53;;;;;;;;;;4984845;28;20033;-68
2023/10/30 04:56:03;;;;;;;7.57;1.58;;;;;;;;;;4986231;28;20065;-68
2023/10/30 04:58:29;;;;;;;12.00;1.70;;;;;;;;;;4984647;28;20765;-68
2023/10/30 05:00:55;;;;;;;10.45;2.22;;;;;;;;;;4985395;28;20771;-68
2023/10/30 05:03:21;;;;;;;8.90;2.47;;;;;;;;;;4983934;28;20516;-68
2023/10/30 05:05:47;;;;;;;11.88;2.25;;;;;;;;;;4986816;28;20026;-68
2023/10/30 05:08:14;;;;;;;9.93;2.17;;;;;;;;;;4985954;28;20059;-68
2023/10/30 05:10:40;;;;;;;8.82;1.73;;;;;;;;;;4986076;28;20520;-68
2023/10/30 05:13:07;;;;;;;8.35;1.70;;;;;;;;;;4984967;28;20060;-68
2023/10/30 05:15:33;;;;;;;8.93;1.67;;;;;;;;;;4986426;28;20021;-68
2023/10/30 05:17:59;;;;;;;10.02;2.00;;;;;;;;;;4984796;28;20116;-68
2023/10/30 05:20:25;;;;;;;10.80;1.95;;;;;;;;;;4983976;28;20125;-68
2023/10/30 05:22:51;;;;;;;8.23;1.88;;;;;;;;;;4985207;28;20053;-68
2023/10/30 05:25:18;;;;;;;6.60;1.70;;;;;;;;;;4984655;28;20647;-68
2023/10/30 05:27:44;;;;;;;10.82;2.03;;;;;;;;;;5001317;28;20479;-68
2023/10/30 05:30:11;;;;;;;9.60;1.77;;;;;;;;;;4985911;28;20100;-68
2023/10/30 05:32:37;;;;;;;7.90;1.98;;;;;;;;;;4985550;28;20065;-68
2023/10/30 05:35:03;;;;;;;7.28;1.65;;;;;;;;;;4984663;28;20054;-68
2023/10/30 05:37:29;;;;;;;9.65;1.60;;;;;;;;;;4985499;28;20576;-68
2023/10/30 05:39:55;;;;;;;6.13;1.75;;;;;;;;;;4986198;28;20543;-68
2023/10/30 05:42:21;;;;;;;10.50;1.85;;;;;;;;;;4983835;28;20387;-68
2023/10/30 05:44:48;;;;;;;6.80;1.38;;;;;;;;;;4985472;28;20033;-68
2023/10/30 05:47:14;;;;;;;10.77;2.35;;;;;;;;;;4984609;28;20040;-68
2023/10/30 05:49:40;;;;;;;9.63;1.50;;;;;;;;;;4983012;28;20042;-68
2023/10/30 05:52:08;;;;;;;11.90;2.13;;;;;;;;;;4983506;28;20092;-68
2023/10/30 05:54:34;;;;;;;13.73;3.25;;;;;;;;;;4984203;28;20710;-68
2023/10/30 05:57:00;;;;;;;10.20;1.92;;;;;;;;;;4985627;28;20033;-68
2023/10/30 05:59:26;;;;;;;9.20;1.50;;;;;;;;;;4984718;28;20027;-68
2023/10/30 06:01:52;;;;;;;12.10;3.15;;;;;;;;;;4984353;28;21074;-68
2023/10/30 06:04:18;;;;;;;13.30;2.00;;;;;;;;;;4983918;28;20049;-68
2023/10/30 06:06:44;;;;;;;9.40;1.88;;;;;;;;;;4984661;28;20041;-68
2023/10/30 06:09:10;;;;;;;11.82;2.20;;;;;;;;;;4982916;28;20080;-68
2023/10/30 06:11:36;;;;;;;8.18;1.67;;;;;;;;;;4983994;28;20155;-68
2023/10/30 06:14:02;;;;;;;10.63;2.00;;;;;;;;;;4983924;28;20043;-68
2023/10/30 06:16:28;;;;;;;15.70;2.10;;;;;;;;;;4983089;28;20030;-68
2023/10/30 06:18:54;;;;;;;7.15;1.48;;;;;;;;;;4984802;28;20151;-68
2023/10/30 06:21:20;;;;;;;5.95;1.38;;;;;;;;;;4982878;28;20030;-68
2023/10/30 06:23:46;;;;;;;9.02;1.88;;;;;;;;;;4984438;28;20489;-68
2023/10/30 06:26:14;;;;;;;10.48;1.85;;;;;;;;;;4982680;28;20983;-68
2023/10/30 06:28:40;;;;;;;19.45;3.13;;;;;;;;;;4984855;28;20027;-68
2023/10/30 06:31:16;;;;;;;12.15;2.58;;;;;;;;;;4984178;28;20036;-68
2023/10/30 06:33:42;;;;;;;6.70;1.58;;;;;;;;;;4985698;28;20037;-68
2023/10/30 06:36:09;;;;;;;11.40;2.13;;;;;;;;;;4985067;28;20406;-68
2023/10/30 06:38:36;;;;;;;9.80;1.63;;;;;;;;;;4984327;28;20077;-68
2023/10/30 06:41:02;;;;;;;13.50;2.63;;;;;;;;;;4984565;28;20104;-68
2023/10/30 06:43:28;;;;;;;12.43;1.92;;;;;;;;;;4983892;28;20025;-68
2023/10/30 06:46:00;;;;;;;11.68;2.00;;;;;;;;;;4986351;28;20035;-68
2023/10/30 06:48:26;;;;;;;9.20;1.47;;;;;;;;;;4985026;28;20120;-69
2023/10/30 06:50:52;;;;;;;14.63;2.22;;;;;;;;;;4985049;28;20733;-68
2023/10/30 06:53:19;;;;;;;7.90;2.13;;;;;;;;;;4984334;28;20026;-68
2023/10/30 06:55:45;;;;;;;13.57;2.38;;;;;;;;;;4984212;28;20041;-68
2023/10/30 06:58:11;;;;;;;9.45;1.88;;;;;;;;;;4985766;28;20148;-68
2023/10/30 07:00:37;;;;;;;13.00;2.17;;;;;;;;;;4984357;28;20049;-68
2023/10/30 07:03:03;;;;;;;15.98;2.70;;;;;;;;;;4985457;28;20037;-68
2023/10/30 07:05:29;;;;;;;12.02;2.95;;;;;;;;;;4996846;28;20103;-68
2023/10/30 07:07:56;;;;;;;13.63;2.38;;;;;;;;;;4983270;28;20034;-69
2023/10/30 07:10:22;;;;;;;10.57;1.95;;;;;;;;;;4984575;28;20073;-68
2023/10/30 07:12:48;;;;;;;13.02;2.08;;;;;;;;;;4983417;28;20548;-69
2023/10/30 07:15:14;;;;;;;7.75;1.70;;;;;;;;;;4984212;28;20057;-68
2023/10/30 07:17:40;;;;;;;12.15;2.22;;;;;;;;;;4992625;28;20037;-69
2023/10/30 07:20:07;;;;;;;11.50;2.45;;;;;;;;;;4981532;28;20038;-68
2023/10/30 07:22:33;;;;;;;11.82;1.85;;;;;;;;;;4984052;28;20128;-68
2023/10/30 07:25:00;;;;;;;9.27;2.25;;;;;;;;;;4982977;28;20026;-69
2023/10/30 07:27:26;;;;;;;10.70;2.05;;;;;;;;;;4987311;28;20777;-69
2023/10/30 07:29:52;;;;;;;14.77;2.38;;;;;;;;;;4986097;28;20026;-69
2023/10/30 07:32:18;;;;;;;11.38;1.95;;;;;;;;;;4987527;28;20109;-67
2023/10/30 07:34:44;;;;;;;11.85;2.03;;;;;;;;;;4986524;28;20030;-67
2023/10/30 07:37:11;;;;;;;11.40;2.08;;;;;;;;;;4987573;28;20120;-68
2023/10/30 07:39:37;;;;;;;10.05;1.88;;;;;;;;;;4988129;28;20025;-68
2023/10/30 07:42:03;;;;;;;15.35;2.53;;;;;;;;;;4986464;28;20029;-68
2023/10/30 07:44:29;;;;;;;12.93;2.88;;;;;;;;;;4988095;28;21130;-68
2023/10/30 07:46:56;;;;;;;7.45;2.65;;;;;;;;;;4994199;28;20062;-67
2023/10/30 07:49:22;;;;;;;12.07;2.20;;;;;;;;;;4986763;28;22251;-67
2023/10/30 07:51:48;;;;;;;8.50;2.05;;;;;;;;;;4985877;28;20034;-67
2023/10/30 07:54:14;;;;;;;12.95;2.20;;;;;;;;;;4986522;28;20038;-67
2023/10/30 07:56:41;;;;;;;10.45;2.58;;;;;;;;;;4986716;28;20040;-68
2023/10/30 07:59:07;;;;;;;11.88;1.85;;;;;;;;;;4985946;28;20053;-68
2023/10/30 08:01:34;;;;;;;15.93;2.20;;;;;;;;;;4984711;28;20085;-68
2023/10/30 08:04:00;;;;;;;9.63;2.10;;;;;;;;;;4984718;28;20068;-68
2023/10/30 08:06:26;;;;;;;10.35;2.17;;;;;;;;;;4975409;28;20037;-68
2023/10/30 08:08:52;;;;;;;10.43;2.55;;;;;;;;;;4976229;28;20112;-68
2023/10/30 08:11:18;;;;;;;13.73;2.42;;;;;;;;;;4974345;28;20496;-67
2023/10/30 08:13:44;;;;;;;8.45;2.10;;;;;;;;;;4977673;28;20033;-68
2023/10/30 08:16:10;;;;;;;11.23;2.38;;;;;;;;;;4986434;28;20040;-68
2023/10/30 08:18:37;;;;;;;11.27;2.60;;;;;;;;;;4977449;28;20042;-68
2023/10/30 08:21:04;;;;;;;15.45;2.28;;;;;;;;;;4976143;28;20040;-67
2023/10/30 08:23:30;;;;;;;8.23;2.08;;;;;;;;;;4975949;28;21938;-68
2023/10/30 08:25:56;;;;;;;11.93;2.38;;;;;;;;;;4976766;28;20040;-68
2023/10/30 08:28:22;;;;;;;11.02;2.10;;;;;;;;;;4976697;28;20030;-67
2023/10/30 08:30:48;;;;;;;8.77;2.13;;;;;;;;;;4975206;28;20562;-68
2023/10/30 08:33:14;;;;;;;16.77;2.65;;;;;;;;;;4976552;28;20037;-68
2023/10/30 08:35:40;;;;;;;13.10;2.83;;;;;;;;;;4976585;28;20069;-68
2023/10/30 08:38:07;;;;;;;15.75;2.53;;;;;;;;;;4975868;28;20819;-67
2023/10/30 08:40:33;;;;;;;10.38;2.13;;;;;;;;;;4977621;28;21011;-68
2023/10/30 08:42:59;;;;;;;8.70;1.75;;;;;;;;;;4975888;28;20430;-68
2023/10/30 08:45:26;;;;;;;11.38;2.60;;;;;;;;;;4976155;28;20045;-68
2023/10/30 08:47:52;;;;;;;11.95;2.70;;;;;;;;;;4974626;28;20773;-68
2023/10/30 08:50:21;;;;;;;9.43;2.00;;;;;;;;;;4989832;28;20027;-68
2023/10/30 08:52:48;;;;;;;10.18;2.03;;;;;;;;;;4974852;28;20041;-68
2023/10/30 08:55:14;;;;;;;8.10;2.38;;;;;;;;;;4975906;28;20377;-67
2023/10/30 08:57:40;;;;;;;10.30;2.40;;;;;;;;;;4975418;28;20065;-68
2023/10/30 09:00:07;;;;;;;13.32;2.47;;;;;;;;;;4976516;28;21394;-67
2023/10/30 09:02:36;;;;;;;10.80;2.30;;;;;;;;;;4976289;28;20045;-68
2023/10/30 09:05:03;;;;;;;9.07;2.17;;;;;;;;;;4975552;28;20061;-68
2023/10/30 09:07:29;;;;;;;13.48;2.45;;;;;;;;;;4976990;28;20030;-68
2023/10/30 09:09:55;;;;;;;14.35;2.28;;;;;;;;;;4977578;28;20542;-67
2023/10/30 09:12:22;;;;;;;13.88;2.92;;;;;;;;;;4976382;28;20572;-68
2023/10/30 09:14:48;;;;;;;12.15;2.13;;;;;;;;;;4976049;28;20030;-67
2023/10/30 09:17:15;;;;;;;7.60;1.70;;;;;;;;;;4986511;28;21187;-68
2023/10/30 09:19:41;;;;;;;10.35;2.58;;;;;;;;;;4978108;28;20083;-67
2023/10/30 09:22:07;;;;;;;9.48;2.97;;;;;;;;;;4976788;28;20084;-68
2023/10/30 09:24:33;;;;;;;13.27;3.28;;;;;;;;;;4975920;28;20033;-68
2023/10/30 09:26:59;;;;;;;13.65;2.47;;;;;;;;;;4977510;28;20030;-68
2023/10/30 09:29:25;;;;;;;9.27;2.20;;;;;;;;;;4978238;28;20058;-67
2023/10/30 09:31:51;;;;;;;9.77;1.88;;;;;;;;;;4978023;28;20046;-68
2023/10/30 09:34:18;;;;;;;11.45;2.25;;;;;;;;;;4976591;28;20117;-68
2023/10/30 09:36:44;;;;;;;13.82;2.20;;;;;;;;;;4977703;28;20130;-68
2023/10/30 09:39:10;;;;;;;12.27;2.45;;;;;;;;;;4976754;28;20042;-68
2023/10/30 09:41:43;;;;;;;11.27;2.10;;;;;;;;;;4976186;28;20088;-68
2023/10/30 09:44:10;;;;;;;;;;;;;;;;;;4978621;28;20033;-67
2023/10/30 09:46:38;;;;;;;12.43;2.47;;;;;;;;;;4977749;28;19917;-68
2023/10/30 09:49:04;;;;;;;9.50;2.35;;;;;;;;;;4977493;28;20123;-68
2023/10/30 09:51:30;;;;;;;11.00;2.42;;;;;;;;;;4977184;28;20061;-68
2023/10/30 09:53:58;;;;;;;9.65;2.25;;;;;;;;;;4977301;28;20108;-67
2023/10/30 09:56:25;;;;;;;16.83;2.95;;;;;;;;;;4976046;28;20054;-68
2023/10/30 09:58:51;;;;;;;11.77;2.25;;;;;;;;;;4977320;28;20041;-68
2023/10/30 10:01:19;;;;;;;12.45;2.53;;;;;;;;;;4976489;28;20061;-67
2023/10/30 10:03:45;;;;;;;11.48;2.05;;;;;;;;;;4975262;28;20025;-68
2023/10/30 10:06:11;;;;;;;10.60;2.90;;;;;;;;;;4976639;28;20601;-68
2023/10/30 10:08:37;;;;;;;11.32;1.90;;;;;;;;;;4975382;28;20749;-68
2023/10/30 10:11:05;;;;;;;11.23;2.10;;;;;;;;;;4976788;28;20073;-68
2023/10/30 10:13:33;;;;;;;16.83;2.97;;;;;;;;;;4975543;28;21088;-68
2023/10/30 10:16:00;;;;;;;12.65;2.58;;;;;;;;;;4975473;28;20033;-68
2023/10/30 10:18:36;;;;;;;8.20;2.00;;;;;;;;;;4976425;28;20046;-67
2023/10/30 10:21:04;;;;;;;8.38;2.30;;;;;;;;;;4959196;28;20207;-68
2023/10/30 10:23:31;;;;;;;11.65;1.98;;;;;;;;;;4977044;28;20033;-67
2023/10/30 10:25:58;;;;;;;19.10;2.58;;;;;;;;;;4975802;28;20476;-69
2023/10/30 10:28:25;;;;;;;14.15;2.30;;;;;;;;;;4975768;28;21941;-68
2023/10/30 10:30:53;;;;;;;9.98;2.13;;;;;;;;;;4976762;28;20041;-68
2023/10/30 10:33:20;;;;;;;13.98;2.97;;;;;;;;;;4976794;28;20061;-67
2023/10/30 10:35:47;;;;;;;9.38;2.00;;;;;;;;;;4975730;28;20030;-68
2023/10/30 10:38:16;;;;;;;12.52;2.15;;;;;;;;;;4977428;28;20037;-68
2023/10/30 10:40:43;;;;;;;12.80;2.95;;;;;;;;;;4977008;28;20026;-68
2023/10/30 10:43:09;;;;;;;8.85;1.83;;;;;;;;;;4975325;28;20772;-68
2023/10/30 10:45:37;;;;;;;12.30;2.42;;;;;;;;;;4976382;28;20034;-68
2023/10/30 10:48:05;;;;;;;10.40;1.90;;;;;;;;;;4981206;28;20112;-68
2023/10/30 10:50:34;;;;;;;11.55;2.08;;;;;;;;;;4974737;28;20030;-68
2023/10/30 10:53:01;;;;;;;11.05;2.25;;;;;;;;;;4976832;28;20127;-68
2023/10/30 10:55:30;;;;;;;11.57;2.58;;;;;;;;;;4974536;28;20036;-67
2023/10/30 10:57:57;;;;;;;11.93;3.00;;;;;;;;;;4976157;28;20037;-68
2023/10/30 11:00:25;;;;;;;13.27;2.58;;;;;;;;;;4974965;28;20139;-68
2023/10/30 11:02:51;;;;;;;11.20;2.03;;;;;;;;;;4978932;28;20117;-68
2023/10/30 11:05:18;;;;;;;21.35;4.10;;;;;;;;;;4980074;28;20508;-68
2023/10/30 11:07:44;;;;;;;14.32;2.72;;;;;;;;;;4979778;28;20034;-67
2023/10/30 11:10:13;;;;;;;10.38;1.98;;;;;;;;;;4979940;28;20026;-68
2023/10/30 11:12:49;;;;;;;14.02;2.38;;;;;;;;;;4979736;28;20120;-68
2023/10/30 11:15:20;;;;;;;11.00;2.30;;;;;;;;;;4978930;28;20041;-68
2023/10/30 11:18:05;;;;;;;12.40;1.92;;;;;;;;;;4979589;28;20088;-68
2023/10/30 11:20:31;;;;;;;15.63;2.75;;;;;;;;;;4978774;28;20049;-68
2023/10/30 11:22:57;;;;;;;9.02;1.95;;;;;;;;;;4978699;28;20038;-68
2023/10/30 11:25:46;;;;;;;12.98;2.55;;;;;;;;;;4979024;28;20068;-68
2023/10/30 11:28:13;;;;;;;8.57;1.80;;;;;;;;;;4978764;28;20320;-68
2023/10/30 11:30:45;;;;;;;12.02;2.60;;;;;;;;;;4980917;28;20033;-68
2023/10/30 11:33:19;;;;;;;15.35;2.03;;;;;;;;;;4978344;28;20040;-68
2023/10/30 11:35:46;;;;;;;14.48;2.67;;;;;;;;;;4979367;28;20145;-68
2023/10/30 11:38:16;;;;;;;8.90;2.30;;;;;;;;;;4978254;28;20679;-68
2023/10/30 11:40:43;;;;;;;10.18;2.17;;;;;;;;;;4980637;28;20473;-68
2023/10/30 11:43:09;;;;;;;12.55;2.50;;;;;;;;;;4979018;28;20034;-68
2023/10/30 11:45:40;;;;;;;11.77;2.63;;;;;;;;;;4979581;28;20218;-67
2023/10/30 11:48:07;;;;;;;12.63;2.38;;;;;;;;;;4979980;28;20029;-68
2023/10/30 11:50:37;;;;;;;12.13;2.38;;;;;;;;;;4992938;28;20062;-68
2023/10/30 11:53:07;;;;;;;11.20;2.10;;;;;;;;;;4978848;28;20030;-68
2023/10/30 11:55:33;;;;;;;12.32;2.40;;;;;;;;;;4978950;28;20058;-68
2023/10/30 11:58:00;;;;;;;9.88;1.65;;;;;;;;;;4977664;28;20080;-68
2023/10/30 12:00:26;;;;;;;10.88;2.30;;;;;;;;;;4979664;28;20045;-68
2023/10/30 12:02:52;;;;;;;15.30;2.97;;;;;;;;;;4976994;28;20115;-68
2023/10/30 12:05:18;;;;;;;11.95;2.42;;;;;;;;;;4977770;28;20030;-68
2023/10/30 12:07:44;;;;;;;12.10;2.20;;;;;;;;;;4976765;28;20039;-68
2023/10/30 12:10:10;;;;;;;17.27;2.38;;;;;;;;;;4978622;28;20026;-68
2023/10/30 12:12:37;;;;;;;13.30;2.58;;;;;;;;;;4989795;28;20061;-68
2023/10/30 12:15:03;;;;;;;15.45;2.40;;;;;;;;;;4979126;28;20041;-68
2023/10/30 12:17:29;;;;;;;10.50;1.98;;;;;;;;;;4978646;28;20066;-68
2023/10/30 12:19:57;;;;;;;12.13;1.98;;;;;;;;;;4977381;28;20034;-68
2023/10/30 12:22:23;;;;;;;7.65;2.47;;;;;;;;;;4989386;28;20034;-68
2023/10/30 12:24:50;;;;;;;9.07;1.90;;;;;;;;;;4976753;28;20034;-68
2023/10/30 12:27:22;;;;;;;9.25;2.05;;;;;;;;;;4975951;28;20106;-68
2023/10/30 12:29:53;;;;;;;12.13;2.25;;;;;;;;;;4978597;28;20144;-68
2023/10/30 12:32:20;;;;;;;12.65;2.20;;;;;;;;;;4976179;28;20099;-68
2023/10/30 12:34:46;;;;;;;8.38;1.92;;;;;;;;;;4977422;28;20048;-68
2023/10/30 12:37:23;;;;;;;9.55;1.70;;;;;;;;;;4976175;28;20749;-68
2023/10/30 12:40:07;;;;;;;16.75;2.75;;;;;;;;;;4974759;28;20060;-68
2023/10/30 12:42:34;;;;;;;10.82;2.03;;;;;;;;;;4976992;28;20038;-68
2023/10/30 12:45:07;;;;;;;18.55;2.50;;;;;;;;;;4976429;28;20330;-68
2023/10/30 12:47:34;;;;;;;12.77;1.88;;;;;;;;;;4976125;28;20030;-68
2023/10/30 12:50:01;;;;;;;15.45;2.50;;;;;;;;;;4974207;28;21012;-68
2023/10/30 12:52:27;;;;;;;11.27;2.38;;;;;;;;;;4976506;28;20037;-68
2023/10/30 12:54:53;;;;;;;13.85;2.60;;;;;;;;;;4975271;28;20065;-68
2023/10/30 12:57:19;;;;;;;15.80;3.55;;;;;;;;;;4976573;28;20590;-68
2023/10/30 12:59:45;;;;;;;8.45;2.15;;;;;;;;;;4975058;28;20046;-69
2023/10/30 13:02:11;;;;;;;15.07;2.42;;;;;;;;;;4976015;28;20053;-68
2023/10/30 13:04:38;;;;;;;11.05;2.13;;;;;;;;;;4974439;28;20168;-67
2023/10/30 13:07:04;;;;;;;10.35;2.33;;;;;;;;;;4976434;28;20034;-68
2023/10/30 13:09:30;;;;;;;16.65;2.42;;;;;;;;;;4975314;28;20156;-68
2023/10/30 13:11:56;;;;;;;8.73;2.17;;;;;;;;;;4974400;28;20486;-68
2023/10/30 13:14:22;;;;;;;9.45;2.10;;;;;;;;;;4976007;28;20062;-68
2023/10/30 13:16:48;;;;;;;12.55;2.63;;;;;;;;;;4974030;28;20031;-69
2023/10/30 13:19:15;;;;;;;13.32;2.25;;;;;;;;;;4974679;28;20026;-69
2023/10/30 13:21:43;;;;;;;9.73;2.17;;;;;;;;;;4976718;28;20140;-68
2023/10/30 13:24:09;;;;;;;15.07;2.58;;;;;;;;;;4976718;28;20042;-68
2023/10/30 13:26:35;;;;;;;8.00;1.98;;;;;;;;;;4975051;28;20402;-68
2023/10/30 13:29:02;;;;;;;10.05;2.63;;;;;;;;;;4078878;28;10000878;-68
2023/10/30 13:31:28;;;;;;;10.23;1.77;;;;;;;;;;4930385;28;20027;-68
2023/10/30 13:33:55;;;;;;;7.95;1.92;;;;;;;;;;4930202;28;20044;-68
2023/10/30 13:36:21;;;;;;;14.60;2.40;;;;;;;;;;4933868;28;20081;-68
2023/10/30 13:38:47;;;;;;;11.25;2.55;;;;;;;;;;4933972;28;20049;-68
2023/10/30 13:41:13;;;;;;;12.82;2.20;;;;;;;;;;4934355;28;20125;-69
2023/10/30 13:43:41;;;;;;;7.82;1.95;;;;;;;;;;4933717;28;20039;-69
2023/10/30 13:46:08;;;;;;;12.35;2.45;;;;;;;;;;4934912;28;20041;-68
2023/10/30 13:48:34;;;;;;;13.85;2.65;;;;;;;;;;4933949;28;20066;-69
2023/10/30 13:51:00;;;;;;;17.13;3.13;;;;;;;;;;4933958;28;20127;-68
2023/10/30 13:53:26;;;;;;;11.45;2.38;;;;;;;;;;4934720;28;20058;-69
2023/10/30 13:55:53;;;;;;;13.70;2.63;;;;;;;;;;4934636;28;20041;-69
2023/10/30 13:58:19;;;;;;;13.77;2.30;;;;;;;;;;4934015;28;20039;-69
2023/10/30 14:00:45;;;;;;;12.35;2.22;;;;;;;;;;4933674;28;20065;-69
2023/10/30 14:03:11;;;;;;;9.90;2.15;;;;;;;;;;4934441;28;20119;-69
2023/10/30 14:05:38;;;;;;;15.15;2.08;;;;;;;;;;4932340;28;20046;-69
2023/10/30 14:08:04;;;;;;;8.68;2.20;;;;;;;;;;4935570;28;20388;-69
2023/10/30 14:10:30;;;;;;;12.23;2.17;;;;;;;;;;4933945;28;20035;-68
2023/10/30 14:12:56;;;;;;;16.92;2.75;;;;;;;;;;4934756;28;20034;-69
2023/10/30 14:15:22;;;;;;;12.80;2.13;;;;;;;;;;4934972;28;20045;-70
2023/10/30 14:17:48;;;;;;;12.20;2.65;;;;;;;;;;4935868;28;20113;-69
2023/10/30 14:20:14;;;;;;;10.65;2.60;;;;;;;;;;4933516;28;20505;-69
2023/10/30 14:22:41;;;;;;;9.88;2.85;;;;;;;;;;4931298;28;20039;-69
2023/10/30 14:25:07;;;;;;;12.45;2.55;;;;;;;;;;4931432;28;21084;-69
2023/10/30 14:27:33;;;;;;;11.05;2.17;;;;;;;;;;4932132;28;20430;-69
2023/10/30 14:29:59;;;;;;;10.98;1.92;;;;;;;;;;4933758;28;20030;-69
2023/10/30 14:32:25;;;;;;;8.23;1.95;;;;;;;;;;4932542;28;20038;-69